createdAt,value
2023-01-13T00:00:48.751Z,11.17
2023-01-13T00:01:48.740Z,11.16
2023-01-13T00:02:48.733Z,11.02
2023-01-13T00:03:48.726Z,11.14
2023-01-13T00:04:48.797Z,11.13
2023-01-13T00:05:48.741Z,11.21
2023-01-13T00:06:48.685Z,11.29
2023-01-13T00:07:48.735Z,11.21
2023-01-13T00:08:48.682Z,11.13
2023-01-13T00:09:48.680Z,11.20
2023-01-13T00:10:48.652Z,11.25
2023-01-13T00:11:48.671Z,11.31
2023-01-13T00:12:48.668Z,11.24
2023-01-13T00:13:48.674Z,11.24
2023-01-13T00:14:48.637Z,11.19
2023-01-13T00:15:48.792Z,11.35
2023-01-13T00:16:48.627Z,11.19
2023-01-13T00:17:48.659Z,11.24
2023-01-13T00:18:48.607Z,11.25
2023-01-13T00:19:48.652Z,11.29
2023-01-13T00:20:48.592Z,11.31
2023-01-13T00:21:48.591Z,11.27
2023-01-13T00:22:48.604Z,11.35
2023-01-13T00:23:48.585Z,11.35
2023-01-13T00:24:48.548Z,11.28
2023-01-13T00:25:49.578Z,11.32
2023-01-13T00:26:48.555Z,11.32
2023-01-13T00:27:48.602Z,11.16
2023-01-13T00:28:48.544Z,11.17
2023-01-13T00:29:48.559Z,11.21
2023-01-13T00:30:48.522Z,11.24
2023-01-13T00:31:48.512Z,11.32
2023-01-13T00:32:48.506Z,11.25
2023-01-13T00:33:48.515Z,11.31
2023-01-13T00:34:48.513Z,11.28
2023-01-13T00:35:48.492Z,11.32
2023-01-13T00:36:48.497Z,11.35
2023-01-13T00:37:48.473Z,11.36
2023-01-13T00:38:48.494Z,11.25
2023-01-13T00:39:48.468Z,11.24
2023-01-13T00:40:48.459Z,11.32
2023-01-13T00:41:48.466Z,11.31
2023-01-13T00:42:48.489Z,11.31
2023-01-13T00:43:48.443Z,11.43
2023-01-13T00:44:48.457Z,11.53
2023-01-13T00:45:48.431Z,11.44
2023-01-13T00:46:48.467Z,11.32
2023-01-13T00:47:48.431Z,11.44
2023-01-13T00:48:48.421Z,11.31
2023-01-13T00:49:48.405Z,11.31
2023-01-13T00:50:48.393Z,11.36
2023-01-13T00:51:48.397Z,11.39
2023-01-13T00:52:48.377Z,11.41
2023-01-13T00:53:48.375Z,11.38
2023-01-13T00:54:48.432Z,11.32
2023-01-13T00:55:48.355Z,11.52
2023-01-13T00:56:48.358Z,11.56
2023-01-13T00:57:48.368Z,11.38
2023-01-13T00:58:48.379Z,11.39
2023-01-13T00:59:49.603Z,11.43
2023-01-13T01:00:49.362Z,11.35
2023-01-13T01:01:48.433Z,11.24
2023-01-13T01:02:48.361Z,11.27
2023-01-13T01:03:48.336Z,11.27
2023-01-13T01:04:48.349Z,11.19
2023-01-13T01:05:48.336Z,11.25
2023-01-13T01:06:48.288Z,11.32
2023-01-13T01:07:48.290Z,11.27
2023-01-13T01:08:48.331Z,11.06
2023-01-13T01:09:48.278Z,11.11
2023-01-13T01:10:48.387Z,11.16
2023-01-13T01:11:48.266Z,11.29
2023-01-13T01:12:48.301Z,11.25
2023-01-13T01:13:48.251Z,11.21
2023-01-13T01:14:48.260Z,11.31
2023-01-13T01:15:48.295Z,11.31
2023-01-13T01:16:48.290Z,11.35
2023-01-13T01:17:48.222Z,11.27
2023-01-13T01:18:49.200Z,11.21
2023-01-13T01:19:48.293Z,11.31
2023-01-13T01:20:48.187Z,11.25
2023-01-13T01:21:48.225Z,11.31
2023-01-13T01:22:48.175Z,11.36
2023-01-13T01:23:48.163Z,11.31
2023-01-13T01:24:48.160Z,11.19
2023-01-13T01:25:49.172Z,11.29
2023-01-13T01:26:48.170Z,11.29
2023-01-13T01:27:48.143Z,11.35
2023-01-13T01:28:48.198Z,11.16
2023-01-13T01:29:48.116Z,11.27
2023-01-13T01:30:48.131Z,11.41
2023-01-13T01:31:48.183Z,11.28
2023-01-13T01:32:48.104Z,11.17
2023-01-13T01:33:48.096Z,11.21
2023-01-13T01:34:48.110Z,11.14
2023-01-13T01:35:48.108Z,11.20
2023-01-13T01:36:48.079Z,11.32
2023-01-13T01:37:48.078Z,11.39
2023-01-13T01:38:48.074Z,11.39
2023-01-13T01:39:48.066Z,11.39
2023-01-13T01:40:48.068Z,11.32
2023-01-13T01:41:48.071Z,11.21
2023-01-13T01:42:49.063Z,11.27
2023-01-13T01:43:48.062Z,11.38
2023-01-13T01:44:49.849Z,11.31
2023-01-13T01:45:48.032Z,11.24
2023-01-13T01:46:48.048Z,11.21
2023-01-13T01:47:48.016Z,11.17
2023-01-13T01:48:48.066Z,11.24
2023-01-13T01:49:47.990Z,11.36
2023-01-13T01:50:47.983Z,11.32
2023-01-13T01:51:47.977Z,11.28
2023-01-13T01:52:47.976Z,11.43
2023-01-13T01:53:47.974Z,11.41
2023-01-13T01:54:47.994Z,11.38
2023-01-13T01:55:47.958Z,11.35
2023-01-13T01:56:47.941Z,11.34
2023-01-13T01:57:47.940Z,11.39
2023-01-13T01:58:47.958Z,11.44
2023-01-13T01:59:47.972Z,11.50
2023-01-13T02:00:47.985Z,11.49
2023-01-13T02:01:48.152Z,11.46
2023-01-13T02:02:48.054Z,11.46
2023-01-13T02:03:47.909Z,11.47
2023-01-13T02:04:47.904Z,11.56
2023-01-13T02:05:47.902Z,11.43
2023-01-13T02:06:47.898Z,11.64
2023-01-13T02:07:47.897Z,11.39
2023-01-13T02:08:48.033Z,11.56
2023-01-13T02:09:47.882Z,11.52
2023-01-13T02:10:47.880Z,11.46
2023-01-13T02:11:47.855Z,11.41
2023-01-13T02:12:47.858Z,11.38
2023-01-13T02:13:47.848Z,11.59
2023-01-13T02:14:47.831Z,11.57
2023-01-13T02:15:47.857Z,11.50
2023-01-13T02:16:47.814Z,11.61
2023-01-13T02:17:47.804Z,11.41
2023-01-13T02:18:47.794Z,11.47
2023-01-13T02:19:47.800Z,11.43
2023-01-13T02:20:47.790Z,11.44
2023-01-13T02:21:47.784Z,11.57
2023-01-13T02:22:47.776Z,11.52
2023-01-13T02:23:47.761Z,11.46
2023-01-13T02:24:47.774Z,11.56
2023-01-13T02:25:47.852Z,11.49
2023-01-13T02:26:47.739Z,11.50
2023-01-13T02:27:47.749Z,11.44
2023-01-13T02:28:47.750Z,11.44
2023-01-13T02:29:47.755Z,11.44
2023-01-13T02:30:47.717Z,11.50
2023-01-13T02:31:47.737Z,11.50
2023-01-13T02:32:47.702Z,11.50
2023-01-13T02:33:47.725Z,11.52
2023-01-13T02:34:47.712Z,11.56
2023-01-13T02:35:47.698Z,11.61
2023-01-13T02:36:47.684Z,11.54
2023-01-13T02:37:47.690Z,11.65
2023-01-13T02:38:47.730Z,11.49
2023-01-13T02:39:47.661Z,11.56
2023-01-13T02:40:47.719Z,11.43
2023-01-13T02:41:47.679Z,11.46
2023-01-13T02:42:47.667Z,11.28
2023-01-13T02:43:47.652Z,11.36
2023-01-13T02:44:47.649Z,11.28
2023-01-13T02:45:47.678Z,11.41
2023-01-13T02:46:47.616Z,11.38
2023-01-13T02:47:47.630Z,11.35
2023-01-13T02:48:47.625Z,11.49
2023-01-13T02:49:47.675Z,11.29
2023-01-13T02:50:47.598Z,11.24
2023-01-13T02:51:47.583Z,11.35
2023-01-13T02:52:47.594Z,11.36
2023-01-13T02:53:47.571Z,11.27
2023-01-13T02:54:47.573Z,11.27
2023-01-13T02:55:47.587Z,11.31
2023-01-13T02:56:47.593Z,11.49
2023-01-13T02:57:47.543Z,11.43
2023-01-13T02:58:47.544Z,11.36
2023-01-13T02:59:47.565Z,11.36
2023-01-13T03:00:47.587Z,11.41
2023-01-13T03:01:47.653Z,11.38
2023-01-13T03:02:47.598Z,11.44
2023-01-13T03:03:47.541Z,11.74
2023-01-13T03:04:47.509Z,11.67
2023-01-13T03:05:47.503Z,11.62
2023-01-13T03:06:47.528Z,11.65
2023-01-13T03:07:47.542Z,11.62
2023-01-13T03:08:47.537Z,11.54
2023-01-13T03:09:47.484Z,11.47
2023-01-13T03:10:47.489Z,11.36
2023-01-13T03:11:47.471Z,11.43
2023-01-13T03:12:47.479Z,11.39
2023-01-13T03:13:47.475Z,11.34
2023-01-13T03:14:47.452Z,11.39
2023-01-13T03:15:47.452Z,11.50
2023-01-13T03:16:47.478Z,11.46
2023-01-13T03:17:47.408Z,11.43
2023-01-13T03:18:48.432Z,11.32
2023-01-13T03:19:47.420Z,11.49
2023-01-13T03:20:47.404Z,11.46
2023-01-13T03:21:47.398Z,11.52
2023-01-13T03:22:47.385Z,11.38
2023-01-13T03:23:47.392Z,11.44
2023-01-13T03:24:47.383Z,11.52
2023-01-13T03:25:47.363Z,11.39
2023-01-13T03:26:47.381Z,11.28
2023-01-13T03:27:47.362Z,11.21
2023-01-13T03:28:47.348Z,11.27
2023-01-13T03:29:47.348Z,11.07
2023-01-13T03:30:47.374Z,10.94
2023-01-13T03:31:47.357Z,10.88
2023-01-13T03:32:47.320Z,10.83
2023-01-13T03:33:47.343Z,10.81
2023-01-13T03:34:47.318Z,10.74
2023-01-13T03:35:48.363Z,10.73
2023-01-13T03:36:47.319Z,10.71
2023-01-13T03:37:47.296Z,10.78
2023-01-13T03:38:47.307Z,10.66
2023-01-13T03:39:47.296Z,10.58
2023-01-13T03:40:47.274Z,10.47
2023-01-13T03:41:47.300Z,10.66
2023-01-13T03:42:47.248Z,10.73
2023-01-13T03:43:47.286Z,10.63
2023-01-13T03:44:47.252Z,10.47
2023-01-13T03:45:47.266Z,10.53
2023-01-13T03:46:47.287Z,10.70
2023-01-13T03:47:47.222Z,10.55
2023-01-13T03:48:47.244Z,10.47
2023-01-13T03:49:47.223Z,10.66
2023-01-13T03:50:47.212Z,10.71
2023-01-13T03:51:47.299Z,10.60
2023-01-13T03:52:47.197Z,10.55
2023-01-13T03:53:47.214Z,10.73
2023-01-13T03:54:47.217Z,10.76
2023-01-13T03:55:47.185Z,10.81
2023-01-13T03:56:47.193Z,10.53
2023-01-13T03:57:47.216Z,10.60
2023-01-13T03:58:47.155Z,10.58
2023-01-13T03:59:47.161Z,10.65
2023-01-13T04:00:47.152Z,10.81
2023-01-13T04:01:47.293Z,10.77
2023-01-13T04:02:47.165Z,10.84
2023-01-13T04:03:47.142Z,11.01
2023-01-13T04:04:47.115Z,11.14
2023-01-13T04:05:47.127Z,11.02
2023-01-13T04:06:47.101Z,11.13
2023-01-13T04:07:47.114Z,11.17
2023-01-13T04:08:47.130Z,11.09
2023-01-13T04:09:47.082Z,10.84
2023-01-13T04:10:47.097Z,10.89
2023-01-13T04:11:47.073Z,10.81
2023-01-13T04:12:47.093Z,10.73
2023-01-13T04:13:47.061Z,10.70
2023-01-13T04:14:47.054Z,10.84
2023-01-13T04:15:47.112Z,10.58
2023-01-13T04:16:47.040Z,10.46
2023-01-13T04:17:47.030Z,10.58
2023-01-13T04:18:47.047Z,10.68
2023-01-13T04:19:47.057Z,10.76
2023-01-13T04:20:47.010Z,10.78
2023-01-13T04:21:47.005Z,10.81
2023-01-13T04:22:47.032Z,10.47
2023-01-13T04:23:47.032Z,10.56
2023-01-13T04:24:47.030Z,10.56
2023-01-13T04:25:47.014Z,10.66
2023-01-13T04:26:46.981Z,10.43
2023-01-13T04:27:46.973Z,10.34
2023-01-13T04:28:47.010Z,10.42
2023-01-13T04:29:46.973Z,10.52
2023-01-13T04:30:47.008Z,10.52
2023-01-13T04:31:46.960Z,10.34
2023-01-13T04:32:46.950Z,10.55
2023-01-13T04:33:46.923Z,10.43
2023-01-13T04:34:46.930Z,10.44
2023-01-13T04:35:46.931Z,10.36
2023-01-13T04:36:46.950Z,10.33
2023-01-13T04:37:46.902Z,10.47
2023-01-13T04:38:46.913Z,10.65
2023-01-13T04:39:46.912Z,10.52
2023-01-13T04:40:46.896Z,10.56
2023-01-13T04:41:46.932Z,10.44
2023-01-13T04:42:46.865Z,10.65
2023-01-13T04:43:46.864Z,10.80
2023-01-13T04:44:46.909Z,10.77
2023-01-13T04:45:46.855Z,10.84
2023-01-13T04:46:46.862Z,10.84
2023-01-13T04:47:46.913Z,10.94
2023-01-13T04:48:46.832Z,10.86
2023-01-13T04:49:46.831Z,10.83
2023-01-13T04:50:46.813Z,10.88
2023-01-13T04:51:46.828Z,10.86
2023-01-13T04:52:46.828Z,10.92
2023-01-13T04:53:46.806Z,10.83
2023-01-13T04:54:46.811Z,10.74
2023-01-13T04:55:46.791Z,10.51
2023-01-13T04:56:46.789Z,10.66
2023-01-13T04:57:46.906Z,10.68
2023-01-13T04:58:46.772Z,10.62
2023-01-13T04:59:46.766Z,10.74
2023-01-13T05:00:46.803Z,10.62
2023-01-13T05:01:46.823Z,10.56
2023-01-13T05:02:46.740Z,10.68
2023-01-13T05:03:46.793Z,10.62
2023-01-13T05:04:46.735Z,10.73
2023-01-13T05:05:47.714Z,10.73
2023-01-13T05:06:47.506Z,10.86
2023-01-13T05:07:46.704Z,10.80
2023-01-13T05:08:46.709Z,10.80
2023-01-13T05:09:46.693Z,10.96
2023-01-13T05:10:47.560Z,10.96
2023-01-13T05:11:46.674Z,10.83
2023-01-13T05:12:46.669Z,10.84
2023-01-13T05:13:46.752Z,10.74
2023-01-13T05:14:46.659Z,10.74
2023-01-13T05:15:46.698Z,10.59
2023-01-13T05:16:46.649Z,10.62
2023-01-13T05:17:46.651Z,10.47
2023-01-13T05:18:46.629Z,10.44
2023-01-13T05:19:46.656Z,10.39
2023-01-13T05:20:46.622Z,10.47
2023-01-13T05:21:46.618Z,10.56
2023-01-13T05:22:46.696Z,10.42
2023-01-13T05:23:46.604Z,10.43
2023-01-13T05:24:46.596Z,10.51
2023-01-13T05:25:46.607Z,10.42
2023-01-13T05:26:46.593Z,10.32
2023-01-13T05:27:46.572Z,10.32
2023-01-13T05:28:46.594Z,10.46
2023-01-13T05:29:46.563Z,10.59
2023-01-13T05:30:46.650Z,10.42
2023-01-13T05:31:47.039Z,10.33
2023-01-13T05:32:46.604Z,10.36
2023-01-13T05:33:46.542Z,10.17
2023-01-13T05:34:46.526Z,10.21
2023-01-13T05:35:46.576Z,10.09
2023-01-13T05:36:46.522Z,9.97
2023-01-13T05:37:46.518Z,9.93
2023-01-13T05:38:46.546Z,9.97
2023-01-13T05:39:46.494Z,9.99
2023-01-13T05:40:46.481Z,10.04
2023-01-13T05:41:46.537Z,10.14
2023-01-13T05:42:46.471Z,9.91
2023-01-13T05:43:46.513Z,9.99
2023-01-13T05:44:46.458Z,10.09
2023-01-13T05:45:46.446Z,10.09
2023-01-13T05:46:46.562Z,9.99
2023-01-13T05:47:46.459Z,9.88
2023-01-13T05:48:46.423Z,10.10
2023-01-13T05:49:46.452Z,10.12
2023-01-13T05:50:46.442Z,9.96
2023-01-13T05:51:46.431Z,9.96
2023-01-13T05:52:46.442Z,10.06
2023-01-13T05:53:47.033Z,10.01
2023-01-13T05:54:46.395Z,10.06
2023-01-13T05:55:47.052Z,10.04
2023-01-13T05:56:46.380Z,10.28
2023-01-13T05:57:46.390Z,10.30
2023-01-13T05:58:46.382Z,10.06
2023-01-13T05:59:46.384Z,10.24
2023-01-13T06:00:46.381Z,10.19
2023-01-13T06:01:46.382Z,10.34
2023-01-13T06:02:46.386Z,10.33
2023-01-13T06:03:47.018Z,10.37
2023-01-13T06:04:46.449Z,10.19
2023-01-13T06:05:46.328Z,9.99
2023-01-13T06:06:47.305Z,10.01
2023-01-13T06:07:46.765Z,10.00
2023-01-13T06:08:47.034Z,9.97
2023-01-13T06:09:46.293Z,9.82
2023-01-13T06:10:46.301Z,9.78
2023-01-13T06:11:46.469Z,9.71
2023-01-13T06:12:46.324Z,9.75
2023-01-13T06:13:46.273Z,9.82
2023-01-13T06:14:46.329Z,9.70
2023-01-13T06:15:46.384Z,9.78
2023-01-13T06:16:46.340Z,9.71
2023-01-13T06:17:46.237Z,9.60
2023-01-13T06:18:46.259Z,9.61
2023-01-13T06:19:46.258Z,9.78
2023-01-13T06:20:46.214Z,9.82
2023-01-13T06:21:46.217Z,9.70
2023-01-13T06:22:46.273Z,9.64
2023-01-13T06:23:46.217Z,9.50
2023-01-13T06:24:46.189Z,9.61
2023-01-13T06:25:46.279Z,9.48
2023-01-13T06:26:46.176Z,9.53
2023-01-13T06:27:46.184Z,9.61
2023-01-13T06:28:46.328Z,9.73
2023-01-13T06:29:46.154Z,9.64
2023-01-13T06:30:46.189Z,9.57
2023-01-13T06:31:46.255Z,9.56
2023-01-13T06:32:46.145Z,9.61
2023-01-13T06:33:46.130Z,9.75
2023-01-13T06:34:46.185Z,9.66
2023-01-13T06:35:46.124Z,9.63
2023-01-13T06:36:46.130Z,9.81
2023-01-13T06:37:46.221Z,9.89
2023-01-13T06:38:47.111Z,9.86
2023-01-13T06:39:46.105Z,9.93
2023-01-13T06:40:46.170Z,9.86
2023-01-13T06:41:46.110Z,9.67
2023-01-13T06:42:46.085Z,9.81
2023-01-13T06:43:46.168Z,9.67
2023-01-13T06:44:46.068Z,9.49
2023-01-13T06:45:46.074Z,9.70
2023-01-13T06:46:46.936Z,9.50
2023-01-13T06:47:46.081Z,9.57
2023-01-13T06:48:46.039Z,9.71
2023-01-13T06:49:46.085Z,9.63
2023-01-13T06:50:46.033Z,9.63
2023-01-13T06:51:46.051Z,9.64
2023-01-13T06:52:46.064Z,9.67
2023-01-13T06:53:46.014Z,9.64
2023-01-13T06:54:46.014Z,9.70
2023-01-13T06:55:47.061Z,9.61
2023-01-13T06:56:45.997Z,9.61
2023-01-13T06:57:46.012Z,9.49
2023-01-13T06:58:46.026Z,9.58
2023-01-13T06:59:45.980Z,9.53
2023-01-13T07:00:46.003Z,9.60
2023-01-13T07:01:46.192Z,9.56
2023-01-13T07:02:45.985Z,9.57
2023-01-13T07:03:45.955Z,9.43
2023-01-13T07:04:45.980Z,9.23
2023-01-13T07:05:45.934Z,9.48
2023-01-13T07:06:45.938Z,9.35
2023-01-13T07:07:46.010Z,9.31
2023-01-13T07:08:45.920Z,9.27
2023-01-13T07:09:45.908Z,9.18
2023-01-13T07:10:45.951Z,9.23
2023-01-13T07:11:45.912Z,9.20
2023-01-13T07:12:45.901Z,9.28
2023-01-13T07:13:45.942Z,9.24
2023-01-13T07:14:45.885Z,9.25
2023-01-13T07:15:45.891Z,9.27
2023-01-13T07:16:45.988Z,9.24
2023-01-13T07:17:45.861Z,9.21
2023-01-13T07:18:45.867Z,9.23
2023-01-13T07:19:45.860Z,9.23
2023-01-13T07:20:45.855Z,9.16
2023-01-13T07:21:45.838Z,9.30
2023-01-13T07:22:45.851Z,9.20
2023-01-13T07:23:45.843Z,9.15
2023-01-13T07:24:45.819Z,9.27
2023-01-13T07:25:45.832Z,9.31
2023-01-13T07:26:45.866Z,9.38
2023-01-13T07:27:45.822Z,9.35
2023-01-13T07:28:45.823Z,9.34
2023-01-13T07:29:45.792Z,9.24
2023-01-13T07:30:45.784Z,9.35
2023-01-13T07:31:47.603Z,9.27
2023-01-13T07:32:45.771Z,9.18
2023-01-13T07:33:45.800Z,9.24
2023-01-13T07:34:45.775Z,9.35
2023-01-13T07:35:45.749Z,9.34
2023-01-13T07:36:45.743Z,9.40
2023-01-13T07:37:45.759Z,9.39
2023-01-13T07:38:45.755Z,9.38
2023-01-13T07:39:45.743Z,9.34
2023-01-13T07:40:45.726Z,9.43
2023-01-13T07:41:45.719Z,9.34
2023-01-13T07:42:45.715Z,9.27
2023-01-13T07:43:45.719Z,9.20
2023-01-13T07:44:45.736Z,9.38
2023-01-13T07:45:45.761Z,9.23
2023-01-13T07:46:45.691Z,9.23
2023-01-13T07:47:45.709Z,9.20
2023-01-13T07:48:45.681Z,9.13
2023-01-13T07:49:45.689Z,9.27
2023-01-13T07:50:45.666Z,9.09
2023-01-13T07:51:45.678Z,9.09
2023-01-13T07:52:45.690Z,9.12
2023-01-13T07:53:45.677Z,9.09
2023-01-13T07:54:45.667Z,9.13
2023-01-13T07:55:45.698Z,9.18
2023-01-13T07:56:45.775Z,9.12
2023-01-13T07:57:45.685Z,9.13
2023-01-13T07:58:45.682Z,9.18
2023-01-13T07:59:45.665Z,9.23
2023-01-13T08:00:45.671Z,9.28
2023-01-13T08:01:45.779Z,9.13
2023-01-13T08:02:45.654Z,9.09
2023-01-13T08:03:45.681Z,9.13
2023-01-13T08:04:45.602Z,9.21
2023-01-13T08:05:45.594Z,9.20
2023-01-13T08:06:45.619Z,9.12
2023-01-13T08:07:45.567Z,9.15
2023-01-13T08:08:45.558Z,9.16
2023-01-13T08:09:45.589Z,9.21
2023-01-13T08:10:45.579Z,9.15
2023-01-13T08:11:45.558Z,9.34
2023-01-13T08:12:52.167Z,9.38
2023-01-13T08:13:46.532Z,9.63
2023-01-13T08:14:45.527Z,9.73
2023-01-13T08:15:45.559Z,9.49
2023-01-13T08:16:45.654Z,9.56
2023-01-13T08:17:45.507Z,9.53
2023-01-13T08:18:45.507Z,9.70
2023-01-13T08:19:45.507Z,9.71
2023-01-13T08:20:45.522Z,9.64
2023-01-13T08:21:45.553Z,9.52
2023-01-13T08:22:45.512Z,9.71
2023-01-13T08:23:45.493Z,9.70
2023-01-13T08:24:45.482Z,9.78
2023-01-13T08:25:45.475Z,10.12
2023-01-13T08:26:45.601Z,10.12
2023-01-13T08:27:45.483Z,10.22
2023-01-13T08:28:45.444Z,10.25
2023-01-13T08:29:45.501Z,10.53
2023-01-13T08:30:45.491Z,10.36
2023-01-13T08:31:45.423Z,10.30
2023-01-13T08:32:45.446Z,10.10
2023-01-13T08:33:45.451Z,10.14
2023-01-13T08:34:45.415Z,9.91
2023-01-13T08:35:45.411Z,9.88
2023-01-13T08:36:45.417Z,9.88
2023-01-13T08:37:45.422Z,10.04
2023-01-13T08:38:45.411Z,10.18
2023-01-13T08:39:45.437Z,10.37
2023-01-13T08:40:45.387Z,10.15
2023-01-13T08:41:45.383Z,10.39
2023-01-13T08:42:48.378Z,10.47
2023-01-13T08:43:45.494Z,10.40
2023-01-13T08:44:45.359Z,10.55
2023-01-13T08:45:45.424Z,10.55
2023-01-13T08:46:45.345Z,10.62
2023-01-13T08:47:45.335Z,10.32
2023-01-13T08:48:45.375Z,10.33
2023-01-13T08:49:45.346Z,10.37
2023-01-13T08:50:45.366Z,10.19
2023-01-13T08:51:45.351Z,10.34
2023-01-13T08:52:45.306Z,10.51
2023-01-13T08:53:45.320Z,10.52
2023-01-13T08:54:45.303Z,10.32
2023-01-13T08:55:45.281Z,10.19
2023-01-13T08:56:45.325Z,10.37
2023-01-13T08:57:46.291Z,10.42
2023-01-13T08:58:45.272Z,10.36
2023-01-13T08:59:45.305Z,10.46
2023-01-13T09:00:45.267Z,10.56
2023-01-13T09:01:45.423Z,10.55
2023-01-13T09:02:45.249Z,10.46
2023-01-13T09:03:45.334Z,10.33
2023-01-13T09:04:45.299Z,10.25
2023-01-13T09:05:45.223Z,10.10
2023-01-13T09:06:45.221Z,10.04
2023-01-13T09:07:45.210Z,10.19
2023-01-13T09:08:45.224Z,10.22
2023-01-13T09:09:45.238Z,10.42
2023-01-13T09:10:45.193Z,10.34
2023-01-13T09:11:45.197Z,10.19
2023-01-13T09:12:45.185Z,10.62
2023-01-13T09:13:45.181Z,11.25
2023-01-13T09:14:45.180Z,11.25
2023-01-13T09:15:45.209Z,11.78
2023-01-13T09:16:45.185Z,12.44
2023-01-13T09:17:45.150Z,12.85
2023-01-13T09:18:45.136Z,13.11
2023-01-13T09:19:45.186Z,13.38
2023-01-13T09:20:45.124Z,13.89
2023-01-13T09:21:45.131Z,14.25
2023-01-13T09:22:45.126Z,13.52
2023-01-13T09:23:45.120Z,13.73
2023-01-13T09:24:45.112Z,14.47
2023-01-13T09:25:45.159Z,14.91
2023-01-13T09:26:45.087Z,13.89
2023-01-13T09:27:45.090Z,13.24
2023-01-13T09:28:45.225Z,13.89
2023-01-13T09:29:45.066Z,13.17
2023-01-13T09:30:45.076Z,13.56
2023-01-13T09:31:45.158Z,14.34
2023-01-13T09:32:45.047Z,14.13
2023-01-13T09:33:45.049Z,14.17
2023-01-13T09:34:45.081Z,14.60
2023-01-13T09:35:45.050Z,14.47
2023-01-13T09:36:45.016Z,14.44
2023-01-13T09:37:45.049Z,13.67
2023-01-13T09:38:45.010Z,14.06
2023-01-13T09:39:45.035Z,14.38
2023-01-13T09:40:45.086Z,13.69
2023-01-13T09:41:45.022Z,12.52
2023-01-13T09:42:44.983Z,13.49
2023-01-13T09:43:45.058Z,13.61
2023-01-13T09:44:44.982Z,14.10
2023-01-13T09:45:45.003Z,13.29
2023-01-13T09:46:45.282Z,12.27
2023-01-13T09:47:45.002Z,12.45
2023-01-13T09:48:44.997Z,12.51
2023-01-13T09:49:44.937Z,11.50
2023-01-13T09:50:44.934Z,11.47
2023-01-13T09:51:44.972Z,11.70
2023-01-13T09:52:44.943Z,11.52
2023-01-13T09:53:45.034Z,11.38
2023-01-13T09:54:45.111Z,11.77
2023-01-13T09:55:44.901Z,12.41
2023-01-13T09:56:44.932Z,12.66
2023-01-13T09:57:44.925Z,12.06
2023-01-13T09:58:44.881Z,12.05
2023-01-13T09:59:44.910Z,11.89
2023-01-13T10:00:44.972Z,11.80
2023-01-13T10:01:44.869Z,12.21
2023-01-13T10:02:44.869Z,12.09
2023-01-13T10:03:44.961Z,11.86
2023-01-13T10:04:44.915Z,11.83
2023-01-13T10:05:44.841Z,11.83
2023-01-13T10:06:44.889Z,11.77
2023-01-13T10:07:44.864Z,11.72
2023-01-13T10:08:44.829Z,11.56
2023-01-13T10:09:44.821Z,11.64
2023-01-13T10:10:45.810Z,11.38
2023-01-13T10:11:44.823Z,11.20
2023-01-13T10:12:44.820Z,10.92
2023-01-13T10:13:44.796Z,11.09
2023-01-13T10:14:44.781Z,10.94
2023-01-13T10:15:44.819Z,10.94
2023-01-13T10:16:44.807Z,10.73
2023-01-13T10:17:44.778Z,10.73
2023-01-13T10:18:44.947Z,10.84
2023-01-13T10:19:44.770Z,10.76
2023-01-13T10:20:44.817Z,10.92
2023-01-13T10:21:44.762Z,10.83
2023-01-13T10:22:44.761Z,10.74
2023-01-13T10:23:44.740Z,10.71
2023-01-13T10:24:44.761Z,10.74
2023-01-13T10:25:44.742Z,10.86
2023-01-13T10:26:44.715Z,10.66
2023-01-13T10:27:44.697Z,10.76
2023-01-13T10:28:44.720Z,10.73
2023-01-13T10:29:44.706Z,10.84
2023-01-13T10:30:44.680Z,11.03
2023-01-13T10:31:44.873Z,11.34
2023-01-13T10:32:44.677Z,11.56
2023-01-13T10:33:44.691Z,12.02
2023-01-13T10:34:44.734Z,12.64
2023-01-13T10:35:44.647Z,12.34
2023-01-13T10:36:44.661Z,12.13
2023-01-13T10:37:44.657Z,12.67
2023-01-13T10:38:44.630Z,12.38
2023-01-13T10:39:44.673Z,12.62
2023-01-13T10:40:45.030Z,12.64
2023-01-13T10:41:44.644Z,12.45
2023-01-13T10:42:44.608Z,12.41
2023-01-13T10:43:44.610Z,13.03
2023-01-13T10:44:44.606Z,12.62
2023-01-13T10:45:44.605Z,12.31
2023-01-13T10:46:45.650Z,12.38
2023-01-13T10:47:44.600Z,12.05
2023-01-13T10:48:44.577Z,11.74
2023-01-13T10:49:44.564Z,12.21
2023-01-13T10:50:44.622Z,12.01
2023-01-13T10:51:44.573Z,11.78
2023-01-13T10:52:44.732Z,11.50
2023-01-13T10:53:44.649Z,11.39
2023-01-13T10:54:44.546Z,11.24
2023-01-13T10:55:44.552Z,11.31
2023-01-13T10:56:44.537Z,11.52
2023-01-13T10:57:44.524Z,11.77
2023-01-13T10:58:44.569Z,11.74
2023-01-13T10:59:44.575Z,11.70
2023-01-13T11:00:44.504Z,12.01
2023-01-13T11:01:44.583Z,12.02
2023-01-13T11:02:44.567Z,11.67
2023-01-13T11:03:44.540Z,11.49
2023-01-13T11:04:44.561Z,11.53
2023-01-13T11:05:44.476Z,11.70
2023-01-13T11:06:44.480Z,11.71
2023-01-13T11:07:44.466Z,11.56
2023-01-13T11:08:44.472Z,11.39
2023-01-13T11:09:44.498Z,11.47
2023-01-13T11:10:44.530Z,11.64
2023-01-13T11:11:44.460Z,11.52
2023-01-13T11:12:44.431Z,11.39
2023-01-13T11:13:44.504Z,11.32
2023-01-13T11:14:44.435Z,11.20
2023-01-13T11:15:44.464Z,11.28
2023-01-13T11:16:53.018Z,11.31
2023-01-13T11:17:46.419Z,11.43
2023-01-13T11:18:44.443Z,11.35
2023-01-13T11:19:44.468Z,11.27
2023-01-13T11:20:44.523Z,11.24
2023-01-13T11:21:44.380Z,11.06
2023-01-13T11:22:44.373Z,11.16
2023-01-13T11:23:44.398Z,11.24
2023-01-13T11:24:44.362Z,11.36
2023-01-13T11:25:44.378Z,11.75
2023-01-13T11:26:44.398Z,12.33
2023-01-13T11:27:44.333Z,11.80
2023-01-13T11:28:44.353Z,11.56
2023-01-13T11:29:44.331Z,11.59
2023-01-13T11:30:44.377Z,11.62
2023-01-13T11:31:44.363Z,11.49
2023-01-13T11:32:44.322Z,11.50
2023-01-13T11:33:44.359Z,11.59
2023-01-13T11:34:44.295Z,11.65
2023-01-13T11:35:44.294Z,11.59
2023-01-13T11:36:44.366Z,11.62
2023-01-13T11:37:44.281Z,11.67
2023-01-13T11:38:44.299Z,12.06
2023-01-13T11:39:44.335Z,12.16
2023-01-13T11:40:44.293Z,11.80
2023-01-13T11:41:44.297Z,11.38
2023-01-13T11:42:44.242Z,11.28
2023-01-13T11:43:44.241Z,11.24
2023-01-13T11:44:44.239Z,11.28
2023-01-13T11:45:44.229Z,11.31
2023-01-13T11:46:44.965Z,11.44
2023-01-13T11:47:44.220Z,11.44
2023-01-13T11:48:44.206Z,11.39
2023-01-13T11:49:44.198Z,11.21
2023-01-13T11:50:44.194Z,11.19
2023-01-13T11:51:44.204Z,11.14
2023-01-13T11:52:44.174Z,11.38
2023-01-13T11:53:44.163Z,11.39
2023-01-13T11:54:44.145Z,11.31
2023-01-13T11:55:45.168Z,11.20
2023-01-13T11:56:44.200Z,11.27
2023-01-13T11:57:44.165Z,11.17
2023-01-13T11:58:50.805Z,11.19
2023-01-13T11:59:46.146Z,11.49
2023-01-13T12:00:44.137Z,11.43
2023-01-13T12:01:44.169Z,11.25
2023-01-13T12:02:44.170Z,11.24
2023-01-13T12:03:44.100Z,11.52
2023-01-13T12:04:44.117Z,11.34
2023-01-13T12:05:44.089Z,11.25
2023-01-13T12:06:44.097Z,11.32
2023-01-13T12:07:44.122Z,11.41
2023-01-13T12:08:44.107Z,11.38
2023-01-13T12:09:44.071Z,11.25
2023-01-13T12:10:44.080Z,11.21
2023-01-13T12:11:44.069Z,11.31
2023-01-13T12:12:44.068Z,11.29
2023-01-13T12:13:44.096Z,11.10
2023-01-13T12:14:44.053Z,10.96
2023-01-13T12:15:44.037Z,10.92
2023-01-13T12:16:44.055Z,10.91
2023-01-13T12:17:44.011Z,11.28
2023-01-13T12:18:44.028Z,11.49
2023-01-13T12:19:44.023Z,11.67
2023-01-13T12:20:44.033Z,11.64
2023-01-13T12:21:43.993Z,11.57
2023-01-13T12:22:43.988Z,11.52
2023-01-13T12:23:43.993Z,11.59
2023-01-13T12:24:44.013Z,11.71
2023-01-13T12:25:43.984Z,11.72
2023-01-13T12:26:43.989Z,11.49
2023-01-13T12:27:45.326Z,11.36
2023-01-13T12:28:44.002Z,11.28
2023-01-13T12:29:43.964Z,11.28
2023-01-13T12:30:43.943Z,11.32
2023-01-13T12:31:43.961Z,11.27
2023-01-13T12:32:43.935Z,11.43
2023-01-13T12:33:43.920Z,11.53
2023-01-13T12:34:43.928Z,11.47
2023-01-13T12:35:43.993Z,11.41
2023-01-13T12:36:43.911Z,11.27
2023-01-13T12:37:43.931Z,11.21
2023-01-13T12:38:43.890Z,11.11
2023-01-13T12:39:43.935Z,11.11
2023-01-13T12:40:43.898Z,11.19
2023-01-13T12:41:43.923Z,11.03
2023-01-13T12:42:43.867Z,10.95
2023-01-13T12:43:43.870Z,11.10
2023-01-13T12:44:43.847Z,11.25
2023-01-13T12:45:43.911Z,11.32
2023-01-13T12:46:43.856Z,11.52
2023-01-13T12:47:43.836Z,11.41
2023-01-13T12:48:43.825Z,11.54
2023-01-13T12:49:43.829Z,11.50
2023-01-13T12:50:43.817Z,11.36
2023-01-13T12:51:43.831Z,11.62
2023-01-13T12:52:43.858Z,11.54
2023-01-13T12:53:43.797Z,11.71
2023-01-13T12:54:43.796Z,11.72
2023-01-13T12:55:43.780Z,11.50
2023-01-13T12:56:43.800Z,11.38
2023-01-13T12:57:43.788Z,11.52